Time;durP1;ratioP1;P1;durP2;ratioP2;P2;SDS_P1;SDS_P2;PMS_P1;PMS_P2;Temp;Humidity;BMP_temperature;BMP_pressure;BME280_temperature;BME280_humidity;BME280_pressure;Samples;Min_cycle;Max_cycle;Signal;HPM_P1;HPM_P2
2023/12/17 00:01:29;;;;;;;10.77;8.90;;;4.00;99.90;;;;;;5027672;28;20562;-77
2023/12/17 00:03:58;;;;;;;10.40;9.50;;;4.00;99.90;;;;;;5026326;28;20452;-77
2023/12/17 00:06:26;;;;;;;9.57;8.77;;;4.00;71.80;;;;;;5025450;28;21075;-77
2023/12/17 00:08:56;;;;;;;10.90;9.80;;;4.00;99.90;;;;;;5027907;28;20488;-77
2023/12/17 00:11:24;;;;;;;11.73;10.50;;;4.00;99.90;;;;;;5030303;28;20473;-77
2023/12/17 00:13:52;;;;;;;10.18;8.45;;;4.00;99.90;;;;;;5031651;28;21007;-78
2023/12/17 00:16:20;;;;;;;11.90;9.50;;;3.90;99.90;;;;;;5027139;28;20194;-77
2023/12/17 00:18:48;;;;;;;11.73;10.00;;;3.90;99.90;;;;;;5030323;28;20469;-78
2023/12/17 00:21:17;;;;;;;10.75;9.23;;;3.90;99.90;;;;;;5022258;28;20461;-78
2023/12/17 00:23:45;;;;;;;10.30;9.10;;;4.00;99.90;;;;;;5029823;28;20732;-77
2023/12/17 00:26:15;;;;;;;10.15;8.18;;;4.00;99.90;;;;;;5027280;28;20700;-76
2023/12/17 00:28:43;;;;;;;9.93;9.03;;;4.00;99.90;;;;;;5026168;28;20205;-78
2023/12/17 00:31:11;;;;;;;10.70;9.67;;;3.90;99.90;;;;;;5029428;28;20452;-77
2023/12/17 00:33:40;;;;;;;15.40;9.13;;;3.90;99.90;;;;;;5031266;28;20493;-77
2023/12/17 00:36:09;;;;;;;9.93;9.02;;;3.80;99.90;;;;;;5024194;28;20222;-78
2023/12/17 00:38:37;;;;;;;10.50;8.80;;;3.80;99.90;;;;;;5025659;28;20212;-76
2023/12/17 00:41:06;;;;;;;10.15;8.35;;;3.80;99.90;;;;;;5027961;28;20472;-77
2023/12/17 00:43:36;;;;;;;10.50;9.13;;;3.80;99.90;;;;;;5031113;28;20201;-77
2023/12/17 00:46:04;;;;;;;10.10;8.53;;;3.90;99.90;;;;;;5026711;28;20193;-77
2023/12/17 00:48:32;;;;;;;8.65;8.05;;;3.90;99.90;;;;;;5026521;28;20452;-77
2023/12/17 00:51:01;;;;;;;8.90;8.10;;;3.80;99.90;;;;;;5029536;28;20252;-77
2023/12/17 00:53:29;;;;;;;10.20;9.10;;;3.80;99.90;;;;;;5026374;28;20690;-77
2023/12/17 00:55:57;;;;;;;10.13;9.10;;;3.80;99.90;;;;;;5024441;28;20452;-77
2023/12/17 00:58:25;;;;;;;9.10;8.30;;;3.70;99.90;;;;;;5030791;28;20202;-76
2023/12/17 01:00:55;;;;;;;10.07;8.35;;;3.70;99.90;;;;;;5025876;28;20296;-76
2023/12/17 01:03:23;;;;;;;9.65;8.80;;;3.70;99.90;;;;;;5029521;28;20232;-76
2023/12/17 01:05:52;;;;;;;10.70;9.60;;;3.70;99.90;;;;;;5033172;28;20668;-77
2023/12/17 01:08:20;;;;;;;8.57;7.88;;;3.70;99.90;;;;;;5032476;28;20218;-77
2023/12/17 01:10:48;;;;;;;8.67;7.97;;;3.70;99.90;;;;;;5032687;28;20205;-77
2023/12/17 01:13:16;;;;;;;8.70;7.80;;;3.70;99.90;;;;;;5033992;28;20480;-78
2023/12/17 01:15:45;;;;;;;10.13;9.30;;;3.70;99.90;;;;;;5032047;28;20221;-76
2023/12/17 01:18:15;;;;;;;11.50;9.43;;;3.70;99.90;;;;;;5032846;28;20538;-76
2023/12/17 01:20:43;;;;;;;12.60;9.45;;;3.80;99.90;;;;;;5031706;28;20198;-76
2023/12/17 01:23:11;;;;;;;10.00;9.20;;;3.80;99.90;;;;;;5032656;28;20784;-77
2023/12/17 01:25:39;;;;;;;9.90;9.10;;;3.80;99.90;;;;;;5033899;28;20206;-77
2023/12/17 01:28:07;;;;;;;9.48;8.68;;;3.80;99.90;;;;;;5030976;28;20739;-76
2023/12/17 01:30:36;;;;;;;10.50;8.98;;;3.80;99.90;;;;;;5031721;28;20213;-77
2023/12/17 01:33:04;;;;;;;10.57;8.93;;;3.80;99.90;;;;;;5035245;28;20308;-77
2023/12/17 01:35:34;;;;;;;9.40;8.50;;;3.80;99.90;;;;;;5034733;28;20676;-77
2023/12/17 01:38:02;;;;;;;9.68;8.77;;;3.80;99.90;;;;;;5032687;28;20194;-78
2023/12/17 01:40:33;;;;;;;9.20;8.38;;;3.70;99.90;;;;;;5027262;28;20687;-78
2023/12/17 01:43:03;;;;;;;10.23;9.40;;;3.70;99.90;;;;;;5031262;28;20567;-78
2023/12/17 01:45:34;;;;;;;9.55;8.65;;;3.70;99.90;;;;;;5032920;28;20281;-78
2023/12/17 01:48:03;;;;;;;10.20;9.13;;;3.60;99.90;;;;;;5032395;28;20232;-77
2023/12/17 01:50:32;;;;;;;9.07;8.32;;;3.60;99.90;;;;;;5031122;28;20518;-77
2023/12/17 01:53:02;;;;;;;10.32;9.38;;;3.70;99.90;;;;;;5031998;28;20232;-77
2023/12/17 01:55:30;;;;;;;11.57;8.98;;;3.70;99.90;;;;;;5033725;28;20668;-78
2023/12/17 01:57:58;;;;;;;9.35;8.55;;;3.70;99.90;;;;;;5032690;28;20194;-78
2023/12/17 02:00:27;;;;;;;8.55;7.95;;;3.60;99.90;;;;;;5030807;28;20285;-77
2023/12/17 02:02:55;;;;;;;10.48;8.38;;;3.60;99.90;;;;;;5024128;28;20825;-77
2023/12/17 02:05:23;;;;;;;9.00;8.20;;;3.70;99.90;;;;;;5026243;28;20683;-78
2023/12/17 02:07:51;;;;;;;10.82;9.18;;;3.70;99.90;;;;;;5033167;28;20449;-77
2023/12/17 02:10:21;;;;;;;9.02;8.10;;;3.70;99.90;;;;;;5027710;28;20208;-78
2023/12/17 02:12:49;;;;;;;9.48;8.70;;;3.70;99.90;;;;;;5032495;28;20222;-77
2023/12/17 02:15:17;;;;;;;9.73;8.75;;;3.70;99.90;;;;;;5030700;28;20770;-78
2023/12/17 02:17:46;;;;;;;9.85;9.02;;;3.70;99.90;;;;;;5032522;28;20206;-78
2023/12/17 02:20:14;;;;;;;9.27;8.50;;;3.80;99.90;;;;;;5033095;28;20268;-76
2023/12/17 02:22:43;;;;;;;10.45;9.40;;;3.80;99.90;;;;;;5030460;28;20715;-77
2023/12/17 02:25:13;;;;;;;10.77;9.88;;;3.70;99.90;;;;;;5030040;28;20285;-76
2023/12/17 02:27:43;;;;;;;11.13;10.02;;;3.80;99.90;;;;;;5033022;28;20318;-78
2023/12/17 02:30:12;;;;;;;10.07;9.27;;;3.80;99.90;;;;;;5026817;28;20483;-77
2023/12/17 02:32:40;;;;;;;9.90;8.95;;;3.80;99.90;;;;;;5031819;28;20268;-78
2023/12/17 02:35:09;;;;;;;10.63;8.65;;;3.80;99.90;;;;;;5030780;28;21043;-76
2023/12/17 02:37:38;;;;;;;9.60;8.68;;;3.80;95.20;;;;;;5032119;28;20209;-76
2023/12/17 02:40:07;;;;;;;9.52;8.70;;;3.70;90.50;;;;;;5028890;28;20203;-76
2023/12/17 02:42:37;;;;;;;10.93;9.70;;;3.60;99.90;;;;;;5032141;28;20227;-76
2023/12/17 02:45:06;;;;;;;9.32;8.48;;;3.60;99.90;;;;;;5032103;28;20205;-76
2023/12/17 02:47:35;;;;;;;9.05;8.07;;;3.60;99.90;;;;;;5030129;28;20231;-76
2023/12/17 02:50:04;;;;;;;10.00;9.10;;;3.50;99.90;;;;;;5033799;28;20324;-77
2023/12/17 02:52:32;;;;;;;8.50;7.70;;;3.60;99.90;;;;;;5031224;28;20313;-76
2023/12/17 02:55:00;;;;;;;8.85;7.95;;;3.60;99.90;;;;;;5031590;28;20209;-78
2023/12/17 02:57:29;;;;;;;8.60;7.97;;;3.50;99.90;;;;;;5027187;28;20218;-76
2023/12/17 02:59:58;;;;;;;8.05;7.28;;;3.60;99.90;;;;;;5030307;28;20206;-77
2023/12/17 03:02:26;;;;;;;7.88;7.28;;;3.60;72.30;;;;;;5026860;28;20770;-77
2023/12/17 03:04:55;;;;;;;7.90;7.30;;;3.50;56.20;;;;;;5030993;28;20663;-76
2023/12/17 03:07:23;;;;;;;9.05;7.32;;;3.50;55.00;;;;;;5032026;28;20226;-78
2023/12/17 03:09:54;;;;;;;9.15;8.38;;;3.50;39.90;;;;;;5028927;28;20676;-77
2023/12/17 03:12:22;;;;;;;6.80;6.35;;;3.50;53.10;;;;;;5033094;28;20225;-77
2023/12/17 03:14:51;;;;;;;9.05;8.15;;;3.50;25.60;;;;;;5032957;28;20210;-78
2023/12/17 03:17:20;;;;;;;11.40;8.60;;;3.40;60.80;;;;;;5029204;28;20672;-78
2023/12/17 03:19:49;;;;;;;9.10;8.30;;;3.50;99.90;;;;;;5035488;28;20289;-76
2023/12/17 03:22:17;;;;;;;10.63;7.35;;;3.60;99.90;;;;;;5031131;28;21243;-78
2023/12/17 03:24:45;;;;;;;10.18;9.27;;;3.60;99.90;;;;;;5031864;28;20280;-78
2023/12/17 03:27:13;;;;;;;8.63;7.93;;;3.70;99.90;;;;;;5027962;28;20312;-77
2023/12/17 03:29:41;;;;;;;9.90;8.85;;;3.60;99.90;;;;;;5032279;28;20297;-78
2023/12/17 03:32:09;;;;;;;9.32;8.43;;;3.50;91.40;;;;;;5031054;28;20257;-77
2023/12/17 03:34:39;;;;;;;7.47;6.80;;;3.50;40.10;;;;;;5026240;28;20206;-77
2023/12/17 03:37:07;;;;;;;8.45;7.70;;;3.50;99.90;;;;;;5029421;28;20297;-77
2023/12/17 03:39:35;;;;;;;8.10;7.40;;;3.60;99.90;;;;;;5031552;28;20206;-77
2023/12/17 03:42:04;;;;;;;11.52;7.80;;;3.50;90.30;;;;;;5032511;28;20221;-77
2023/12/17 03:44:33;;;;;;;9.68;7.55;;;3.50;91.20;;;;;;5030350;28;20333;-77
2023/12/17 03:47:01;;;;;;;9.30;8.60;;;3.40;99.90;;;;;;5031070;28;20202;-77
2023/12/17 03:49:30;;;;;;;9.02;8.23;;;3.50;99.90;;;;;;5030800;28;20233;-76
2023/12/17 03:52:02;;;;;;;9.23;8.30;;;3.40;99.90;;;;;;5022926;28;20600;-77
2023/12/17 03:54:30;;;;;;;10.93;8.60;;;3.40;99.90;;;;;;5030162;28;20563;-76
2023/12/17 03:56:59;;;;;;;10.30;9.20;;;3.40;99.90;;;;;;5031255;28;20209;-75
2023/12/17 03:59:27;;;;;;;9.10;8.23;;;3.40;99.90;;;;;;5029787;28;20667;-76
2023/12/17 04:01:57;;;;;;;8.68;7.68;;;3.40;99.90;;;;;;5032646;28;20864;-77
2023/12/17 04:04:25;;;;;;;8.88;8.02;;;3.40;99.90;;;;;;5029675;28;20256;-78
2023/12/17 04:06:53;;;;;;;8.45;7.75;;;3.40;99.90;;;;;;5030030;28;20214;-76
2023/12/17 04:09:23;;;;;;;14.57;10.70;;;3.40;99.90;;;;;;5031348;28;20217;-76
2023/12/17 04:11:51;;;;;;;16.67;12.70;;;3.40;99.90;;;;;;5030419;28;20233;-77
2023/12/17 04:14:19;;;;;;;28.05;13.93;;;3.40;99.90;;;;;;5028915;28;20202;-77
2023/12/17 04:16:47;;;;;;;19.23;12.88;;;3.50;99.90;;;;;;5028096;28;20201;-77
2023/12/17 04:19:15;;;;;;;9.77;8.73;;;3.50;99.90;;;;;;5030226;28;20202;-77
2023/12/17 04:21:44;;;;;;;11.75;10.10;;;3.40;94.50;;;;;;5027588;28;21140;-76
2023/12/17 04:24:12;;;;;;;8.75;8.05;;;3.40;79.10;;;;;;5028029;28;20235;-77
2023/12/17 04:26:42;;;;;;;10.63;8.25;;;3.40;97.80;;;;;;5030468;28;20194;-77
2023/12/17 04:29:10;;;;;;;9.52;8.57;;;3.40;78.30;;;;;;5029709;28;20324;-77
2023/12/17 04:31:38;;;;;;;8.65;7.65;;;3.30;80.50;;;;;;5031988;28;20244;-77
2023/12/17 04:34:08;;;;;;;8.10;7.30;;;3.40;90.70;;;;;;5028958;28;20213;-77
2023/12/17 04:36:37;;;;;;;9.32;8.63;;;3.30;65.00;;;;;;5030933;28;20210;-77
2023/12/17 04:39:05;;;;;;;8.45;7.72;;;3.30;67.30;;;;;;5028324;28;20487;-76
2023/12/17 04:41:34;;;;;;;8.60;7.80;;;3.20;36.30;;;;;;5031171;28;20662;-76
2023/12/17 04:44:04;;;;;;;9.30;7.65;;;3.20;52.00;;;;;;5020128;28;20238;-76
2023/12/17 04:46:32;;;;;;;8.80;7.97;;;3.20;62.90;;;;;;5026514;28;21131;-77
2023/12/17 04:49:01;;;;;;;8.65;7.65;;;3.20;34.70;;;;;;5030815;28;20223;-76
2023/12/17 04:51:29;;;;;;;8.02;7.40;;;3.20;29.80;;;;;;5029643;28;20252;-76
2023/12/17 04:53:57;;;;;;;7.97;7.28;;;3.30;53.20;;;;;;5024211;28;20202;-76
2023/12/17 04:56:25;;;;;;;8.45;7.55;;;3.20;19.80;;;;;;5028264;28;20202;-76
2023/12/17 04:58:54;;;;;;;9.35;7.85;;;3.20;31.80;;;;;;5018637;28;20288;-77
2023/12/17 05:01:23;;;;;;;9.43;7.00;;;3.20;81.50;;;;;;5023036;28;20729;-76
2023/12/17 05:03:52;;;;;;;6.95;6.35;;;3.20;48.20;;;;;;5027502;28;20727;-76
2023/12/17 05:06:20;;;;;;;7.57;6.97;;;3.20;29.50;;;;;;5028777;28;20194;-76
2023/12/17 05:08:48;;;;;;;9.05;7.97;;;3.10;67.40;;;;;;5028397;28;20276;-76
2023/12/17 05:11:16;;;;;;;8.45;7.85;;;3.20;99.90;;;;;;5024626;28;20199;-77
2023/12/17 05:13:44;;;;;;;7.82;7.22;;;3.30;99.90;;;;;;5027617;28;20197;-77
2023/12/17 05:16:13;;;;;;;7.63;6.93;;;3.30;99.90;;;;;;5027760;28;20205;-78
2023/12/17 05:18:42;;;;;;;7.45;6.80;;;3.30;58.50;;;;;;5030122;28;20288;-77
2023/12/17 05:21:10;;;;;;;7.43;6.82;;;3.30;99.90;;;;;;5028811;28;21086;-77
2023/12/17 05:23:39;;;;;;;8.63;7.80;;;3.30;99.90;;;;;;5029684;28;20799;-78
2023/12/17 05:26:07;;;;;;;7.95;7.28;;;3.30;99.90;;;;;;5030908;28;20582;-76
2023/12/17 05:28:37;;;;;;;7.50;6.90;;;3.40;99.90;;;;;;5029749;28;20245;-77
2023/12/17 05:31:06;;;;;;;8.10;7.20;;;3.30;99.90;;;;;;5023772;28;20683;-76
2023/12/17 05:33:34;;;;;;;8.82;8.07;;;3.40;97.90;;;;;;5030960;28;20301;-76
2023/12/17 05:36:05;;;;;;;7.63;7.03;;;3.30;67.70;;;;;;5033604;28;20198;-76
2023/12/17 05:38:33;;;;;;;7.40;6.78;;;3.20;42.90;;;;;;5028082;28;20190;-77
2023/12/17 05:41:02;;;;;;;7.20;6.60;;;3.10;73.00;;;;;;5030419;28;20215;-76
2023/12/17 05:43:30;;;;;;;7.93;7.10;;;3.10;99.90;;;;;;5034881;28;20312;-76
2023/12/17 05:45:58;;;;;;;6.90;6.25;;;3.20;94.80;;;;;;5035056;28;20225;-75
2023/12/17 05:48:33;;;;;;;7.72;7.10;;;3.30;48.60;;;;;;5035984;28;20226;-77
2023/12/17 05:51:02;;;;;;;9.25;7.60;;;3.20;78.90;;;;;;5034212;28;20234;-78
2023/12/17 05:53:33;;;;;;;7.53;6.93;;;3.10;99.90;;;;;;5021597;28;20999;-78
2023/12/17 05:56:13;;;;;;;7.80;7.28;;;3.20;99.90;;;;;;5028086;28;20202;-77
2023/12/17 05:58:43;;;;;;;8.20;7.50;;;3.40;99.90;;;;;;5031520;28;20202;-78
2023/12/17 06:01:12;;;;;;;8.27;7.60;;;3.40;1.00;;;;;;5032071;28;20202;-75
2023/12/17 06:03:40;;;;;;;7.80;7.20;;;3.40;99.90;;;;;;5035497;28;20532;-77
2023/12/17 06:06:09;;;;;;;7.65;7.10;;;3.50;1.00;;;;;;5032526;28;20198;-77
2023/12/17 06:08:39;;;;;;;7.50;6.80;;;3.50;1.00;;;;;;5034321;28;20204;-77
2023/12/17 06:11:07;;;;;;;7.78;7.18;;;3.60;1.00;;;;;;5033308;28;20297;-78
2023/12/17 06:13:36;;;;;;;7.20;6.60;;;3.60;1.00;;;;;;5035683;28;20275;-77
2023/12/17 06:16:05;;;;;;;6.22;5.72;;;3.60;99.90;;;;;;5034411;28;20812;-76
2023/12/17 06:18:33;;;;;;;7.40;7.00;;;3.50;99.90;;;;;;5028877;28;20885;-78
2023/12/17 06:21:01;;;;;;;8.20;7.50;;;3.40;99.90;;;;;;5030497;28;20571;-77
2023/12/17 06:23:30;;;;;;;7.65;6.43;;;3.50;99.90;;;;;;5023005;28;20230;-77
2023/12/17 06:26:04;;;;;;;8.05;7.55;;;3.40;99.90;;;;;;5032883;28;20314;-78
2023/12/17 06:28:32;;;;;;;7.93;7.30;;;3.40;99.90;;;;;;5032375;28;20226;-77
2023/12/17 06:31:00;;;;;;;8.00;7.43;;;3.30;99.90;;;;;;5032586;28;20216;-77
2023/12/17 06:33:29;;;;;;;8.10;7.45;;;3.30;99.90;;;;;;5030863;28;21194;-77
2023/12/17 06:35:57;;;;;;;7.88;7.20;;;3.30;99.90;;;;;;5035176;28;20225;-78
2023/12/17 06:38:25;;;;;;;7.57;7.07;;;3.30;99.90;;;;;;5033681;28;20670;-78
2023/12/17 06:40:54;;;;;;;7.43;6.72;;;3.30;99.90;;;;;;5034150;28;20202;-76
2023/12/17 06:43:24;;;;;;;7.55;6.95;;;3.40;99.90;;;;;;5030060;28;20225;-76
2023/12/17 06:45:53;;;;;;;8.13;7.40;;;3.40;99.90;;;;;;5034024;28;20212;-77
2023/12/17 06:48:21;;;;;;;6.75;6.25;;;3.50;99.90;;;;;;5031701;28;20214;-77
2023/12/17 06:50:49;;;;;;;7.03;6.53;;;3.50;99.90;;;;;;5031724;28;20221;-77
2023/12/17 06:53:18;;;;;;;7.18;6.47;;;3.50;99.90;;;;;;5034352;28;20249;-76
2023/12/17 06:55:46;;;;;;;8.27;7.60;;;3.40;99.90;;;;;;5034755;28;20197;-77
2023/12/17 06:58:14;;;;;;;7.05;6.50;;;3.40;99.90;;;;;;5032609;28;20205;-77
2023/12/17 07:00:44;;;;;;;7.35;6.75;;;3.40;99.90;;;;;;5031708;28;20186;-76
2023/12/17 07:03:12;;;;;;;8.18;7.35;;;3.40;99.90;;;;;;5035504;28;20233;-77
2023/12/17 07:05:41;;;;;;;8.23;7.32;;;3.40;99.90;;;;;;5035001;28;20230;-77
2023/12/17 07:08:09;;;;;;;9.00;7.97;;;3.40;99.90;;;;;;5034025;28;20217;-76
2023/12/17 07:10:37;;;;;;;8.45;7.63;;;3.30;99.90;;;;;;5034141;28;20220;-77
2023/12/17 07:13:05;;;;;;;8.20;7.40;;;3.30;99.90;;;;;;5032019;28;20241;-76
2023/12/17 07:15:33;;;;;;;8.50;7.80;;;3.30;99.90;;;;;;5035582;28;20205;-77
2023/12/17 07:18:03;;;;;;;6.80;6.30;;;3.30;99.90;;;;;;5027029;28;20216;-77
2023/12/17 07:20:31;;;;;;;7.25;6.65;;;3.30;99.90;;;;;;5032915;28;20194;-78
2023/12/17 07:23:00;;;;;;;7.72;6.93;;;3.30;99.90;;;;;;5034146;28;20287;-84
2023/12/17 07:25:28;;;;;;;7.85;7.30;;;3.30;99.90;;;;;;5036488;28;20209;-81
2023/12/17 07:27:56;;;;;;;7.50;6.80;;;3.30;99.90;;;;;;5035185;28;20198;-84
2023/12/17 07:30:25;;;;;;;7.60;6.85;;;3.20;99.90;;;;;;5039044;28;20447;-81
2023/12/17 07:32:53;;;;;;;6.43;6.03;;;3.30;1.00;;;;;;5038324;28;20751;-80
2023/12/17 07:35:23;;;;;;;7.70;6.95;;;3.40;1.00;;;;;;5039826;28;20198;-82
2023/12/17 07:37:51;;;;;;;7.47;6.88;;;3.50;4.60;;;;;;5033719;28;20197;-76
2023/12/17 07:40:20;;;;;;;8.57;7.78;;;3.50;37.00;;;;;;5021439;28;20242;-77
2023/12/17 07:42:48;;;;;;;8.30;7.60;;;3.70;55.70;;;;;;5026042;28;20447;-76
2023/12/17 07:45:16;;;;;;;7.18;6.57;;;3.70;1.00;;;;;;5028869;28;20462;-77
2023/12/17 07:47:45;;;;;;;7.10;6.60;;;3.80;1.00;;;;;;5028211;28;20680;-76
2023/12/17 07:50:15;;;;;;;7.53;6.78;;;3.80;99.90;;;;;;5052922;28;20216;-77
2023/12/17 07:52:45;;;;;;;7.50;6.32;;;3.90;99.90;;;;;;5052366;28;20228;-77
2023/12/17 07:55:13;;;;;;;8.48;7.55;;;3.90;1.00;;;;;;5052994;28;20197;-76
2023/12/17 07:57:41;;;;;;;8.55;7.43;;;4.00;1.00;;;;;;5041617;28;20735;-77
2023/12/17 08:00:12;;;;;;;7.68;7.15;;;4.10;1.00;;;;;;5047146;28;20194;-78
2023/12/17 08:02:40;;;;;;;9.88;8.85;;;4.10;1.00;;;;;;5048493;28;20312;-76
2023/12/17 08:05:09;;;;;;;8.82;8.00;;;4.20;1.00;;;;;;5054747;28;20206;-75
2023/12/17 08:07:37;;;;;;;8.07;7.38;;;4.30;1.00;;;;;;5051573;28;20218;-76
2023/12/17 08:10:08;;;;;;;7.70;7.10;;;4.30;1.00;;;;;;5054167;28;20262;-77
2023/12/17 08:12:36;;;;;;;7.47;6.35;;;4.40;1.00;;;;;;5051630;28;20303;-76
2023/12/17 08:15:06;;;;;;;7.20;6.50;;;4.50;1.00;;;;;;5052311;28;20192;-76
2023/12/17 08:17:34;;;;;;;8.27;7.60;;;4.60;1.00;;;;;;5046579;28;20459;-76
2023/12/17 08:20:03;;;;;;;7.90;7.20;;;4.70;1.00;;;;;;5050898;28;20471;-77
2023/12/17 08:22:32;;;;;;;7.20;6.60;;;4.80;1.00;;;;;;5051855;28;20232;-76
2023/12/17 08:25:00;;;;;;;7.63;6.93;;;4.90;1.00;;;;;;5050388;28;20504;-78
2023/12/17 08:27:29;;;;;;;6.77;6.37;;;5.00;99.90;;;;;;5049971;28;21020;-77
2023/12/17 08:29:58;;;;;;;6.40;6.00;;;5.10;99.90;;;;;;5050760;28;21173;-77
2023/12/17 08:32:31;;;;;;;6.80;6.40;;;5.10;99.90;;;;;;5051174;28;20575;-76
2023/12/17 08:35:00;;;;;;;6.60;6.20;;;5.20;99.90;;;;;;5051215;28;20490;-77
2023/12/17 08:37:29;;;;;;;7.18;6.57;;;5.30;99.90;;;;;;5043183;28;20456;-76
2023/12/17 08:39:58;;;;;;;6.87;6.37;;;5.40;99.90;;;;;;5052186;28;20220;-76
2023/12/17 08:42:26;;;;;;;6.77;6.27;;;5.40;99.90;;;;;;5049930;28;20541;-75
2023/12/17 08:44:55;;;;;;;6.77;6.37;;;5.40;99.90;;;;;;5050116;28;20446;-75
2023/12/17 08:47:24;;;;;;;7.07;6.30;;;5.50;99.90;;;;;;5052272;28;20444;-75
2023/12/17 08:49:52;;;;;;;6.63;6.23;;;5.60;99.90;;;;;;5053117;28;20493;-75
2023/12/17 08:52:20;;;;;;;7.30;6.60;;;5.60;99.90;;;;;;5050516;28;20477;-75
2023/12/17 08:54:48;;;;;;;6.03;5.73;;;5.70;99.90;;;;;;5051556;28;20461;-76
2023/12/17 08:57:17;;;;;;;6.50;6.10;;;5.70;99.90;;;;;;5049181;28;20972;-76
2023/12/17 08:59:45;;;;;;;6.17;5.77;;;5.80;86.10;;;;;;5046679;28;20460;-78
2023/12/17 09:02:15;;;;;;;6.40;5.97;;;5.80;50.10;;;;;;5048680;28;21071;-76
2023/12/17 09:04:43;;;;;;;6.40;6.00;;;5.80;60.50;;;;;;5050583;28;20505;-76
2023/12/17 09:07:11;;;;;;;6.33;5.97;;;5.80;28.70;;;;;;5049180;28;20456;-75
2023/12/17 09:09:38;;;;;;;4.83;4.63;;;6.00;65.10;;;;;;5049096;28;21005;-76
2023/12/17 09:12:07;;;;;;;5.40;5.10;;;6.00;76.80;;;;;;5047919;28;21268;-75
2023/12/17 09:14:35;;;;;;;6.03;5.63;;;6.10;2.60;;;;;;5051623;28;20459;-75
2023/12/17 09:17:04;;;;;;;5.80;5.40;;;6.10;1.00;;;;;;5051559;28;20458;-75
2023/12/17 09:19:34;;;;;;;5.80;5.50;;;6.10;6.40;;;;;;5052415;28;20452;-75
2023/12/17 09:22:02;;;;;;;5.30;4.90;;;6.20;4.00;;;;;;5057038;28;20467;-74
2023/12/17 09:24:31;;;;;;;5.57;5.20;;;6.30;18.70;;;;;;5053121;28;20643;-75
2023/12/17 09:27:00;;;;;;;5.70;5.30;;;6.40;19.30;;;;;;5051638;28;20460;-75
2023/12/17 09:29:28;;;;;;;4.80;4.50;;;6.40;1.00;;;;;;5054979;28;20476;-75
2023/12/17 09:31:57;;;;;;;5.10;4.90;;;6.50;1.00;;;;;;5054230;28;20507;-75
2023/12/17 09:34:25;;;;;;;5.10;4.90;;;6.60;1.00;;;;;;5055763;28;20452;-77
2023/12/17 09:36:53;;;;;;;10.53;9.40;;;6.80;1.00;;;;;;5052114;28;20487;-75
2023/12/17 09:39:22;;;;;;;10.97;9.60;;;7.00;1.00;;;;;;5052557;28;20455;-75
2023/12/17 09:41:50;;;;;;;11.27;10.27;;;7.30;1.00;;;;;;5054688;28;20459;-76
2023/12/17 09:44:19;;;;;;;12.03;11.13;;;7.40;1.00;;;;;;5054014;28;20977;-77
2023/12/17 09:46:47;;;;;;;9.70;8.90;;;7.60;1.00;;;;;;5054450;28;21018;-75
2023/12/17 09:49:15;;;;;;;10.03;9.13;;;7.70;1.00;;;;;;5053183;28;20462;-75
2023/12/17 09:51:48;;;;;;;8.90;8.20;;;8.00;1.00;;;;;;5051631;28;20606;-76
2023/12/17 09:54:17;;;;;;;10.10;9.20;;;8.10;1.00;;;;;;5056081;28;20451;-76
2023/12/17 09:56:48;;;;;;;10.90;9.90;;;8.40;1.00;;;;;;5049925;28;20949;-77
2023/12/17 09:59:16;;;;;;;11.40;10.30;;;8.70;1.00;;;;;;5052774;28;20456;-76
2023/12/17 10:01:44;;;;;;;10.23;9.43;;;9.00;1.00;;;;;;5051558;28;20479;-76
2023/12/17 10:04:13;;;;;;;7.17;6.77;;;9.20;99.90;;;;;;5053421;28;20467;-76
2023/12/17 10:06:41;;;;;;;7.13;6.63;;;9.50;99.90;;;;;;5054155;28;20448;-76
2023/12/17 10:09:10;;;;;;;8.60;8.00;;;9.80;99.90;;;;;;5052387;28;21144;-75
2023/12/17 10:11:40;;;;;;;6.40;6.00;;;10.10;99.90;;;;;;5051879;28;20487;-78
2023/12/17 10:14:21;;;;;;;5.70;5.47;;;10.40;99.90;;;;;;5052456;28;20463;-76
2023/12/17 10:16:50;;;;;;;5.50;5.30;;;10.70;99.90;;;;;;5050893;28;20464;-75
2023/12/17 10:19:18;;;;;;;5.50;5.10;;;10.80;99.90;;;;;;5051389;28;20470;-76
2023/12/17 10:21:47;;;;;;;5.27;4.87;;;11.10;99.90;;;;;;5054129;28;20494;-76
2023/12/17 10:24:15;;;;;;;6.97;4.67;;;11.70;99.90;;;;;;5053502;28;20452;-75
2023/12/17 10:26:46;;;;;;;4.80;4.60;;;12.40;99.90;;;;;;5047419;28;20463;-76
2023/12/17 10:29:15;;;;;;;4.60;4.37;;;12.80;99.90;;;;;;5054039;28;20513;-76
2023/12/17 10:31:44;;;;;;;4.70;4.50;;;13.00;99.90;;;;;;5052015;28;20498;-75
2023/12/17 10:34:18;;;;;;;4.67;4.37;;;13.70;99.90;;;;;;5055198;28;20794;-76
2023/12/17 10:36:48;;;;;;;4.23;4.00;;;14.30;99.90;;;;;;5049913;28;20443;-77
2023/12/17 10:39:17;;;;;;;5.10;4.80;;;14.60;99.90;;;;;;5053426;28;20471;-76
2023/12/17 10:41:48;;;;;;;3.97;3.77;;;14.10;99.90;;;;;;5054873;28;20463;-78
2023/12/17 10:44:17;;;;;;;5.00;3.60;;;14.20;99.90;;;;;;5048634;28;20456;-79
2023/12/17 10:46:46;;;;;;;3.93;3.63;;;14.00;99.90;;;;;;5051292;28;20452;-78
2023/12/17 10:49:15;;;;;;;3.50;3.40;;;13.70;99.90;;;;;;5049050;28;20447;-78
2023/12/17 10:51:44;;;;;;;4.20;4.00;;;13.00;99.90;;;;;;5051984;28;20483;-78
2023/12/17 10:54:12;;;;;;;3.60;3.40;;;12.70;99.90;;;;;;5052829;28;20463;-77
2023/12/17 10:56:45;;;;;;;3.80;3.60;;;12.40;99.90;;;;;;5046034;28;20963;-77
2023/12/17 10:59:18;;;;;;;3.53;3.33;;;12.30;99.90;;;;;;5050935;28;20447;-77
2023/12/17 11:02:02;;;;;;;4.00;3.80;;;12.00;99.90;;;;;;5052468;28;20900;-79
2023/12/17 11:04:31;;;;;;;4.20;4.00;;;11.80;99.90;;;;;;5051325;28;20488;-77
2023/12/17 11:07:00;;;;;;;3.47;3.37;;;11.80;99.90;;;;;;5051623;28;20802;-78
2023/12/17 11:09:28;;;;;;;4.28;4.07;;;11.70;99.90;;;;;;5044550;28;20916;-76
2023/12/17 11:11:56;;;;;;;3.90;3.70;;;11.70;99.90;;;;;;5051322;28;20714;-77
2023/12/17 11:14:26;;;;;;;4.10;3.90;;;11.80;99.90;;;;;;5049598;28;20467;-77
2023/12/17 11:16:54;;;;;;;4.23;4.03;;;12.00;99.90;;;;;;5056201;28;20541;-77
2023/12/17 11:19:22;;;;;;;5.27;4.97;;;12.00;99.90;;;;;;5050843;28;20443;-77
2023/12/17 11:21:50;;;;;;;4.07;3.87;;;12.00;99.90;;;;;;5053255;28;20487;-77
2023/12/17 11:24:20;;;;;;;3.73;3.53;;;12.00;99.90;;;;;;5053512;28;20992;-78
2023/12/17 11:26:52;;;;;;;3.00;2.80;;;11.90;99.90;;;;;;5048569;28;20550;-76
2023/12/17 11:29:34;;;;;;;3.40;3.20;;;11.60;99.90;;;;;;5050211;28;20505;-77
2023/12/17 11:32:03;;;;;;;3.23;3.03;;;11.60;99.90;;;;;;5046692;28;20568;-76
2023/12/17 11:34:32;;;;;;;3.23;3.13;;;11.60;99.90;;;;;;5046610;28;20462;-78
2023/12/17 11:37:00;;;;;;;3.63;3.47;;;11.50;99.90;;;;;;5051103;28;20459;-77
2023/12/17 11:39:30;;;;;;;3.07;2.97;;;11.40;99.90;;;;;;5051612;28;20443;-77
2023/12/17 11:41:58;;;;;;;3.03;2.93;;;11.30;99.90;;;;;;5050391;28;20494;-77
2023/12/17 11:44:26;;;;;;;2.93;2.83;;;11.20;99.90;;;;;;5054511;28;20537;-85
2023/12/17 11:46:56;;;;;;;3.30;3.10;;;11.30;99.90;;;;;;5059785;28;20854;-81
2023/12/17 11:49:25;;;;;;;3.23;3.03;;;11.40;99.90;;;;;;5061781;28;20443;-81
2023/12/17 11:51:55;;;;;;;3.30;3.10;;;11.40;99.90;;;;;;5059806;28;20464;-83
2023/12/17 11:54:24;;;;;;;2.50;2.40;;;11.30;99.90;;;;;;5059483;28;20452;-81
2023/12/17 11:56:52;;;;;;;2.70;2.60;;;11.30;99.90;;;;;;5062369;28;20486;-81
2023/12/17 11:59:32;;;;;;;3.30;3.20;;;11.40;99.90;;;;;;5059643;28;20444;-81
2023/12/17 12:02:04;;;;;;;2.53;2.43;;;11.30;99.90;;;;;;5055316;28;20478;-83
2023/12/17 12:04:40;;;;;;;2.87;2.77;;;11.40;99.90;;;;;;5050908;28;20582;-83
2023/12/17 12:07:11;;;;;;;2.73;2.63;;;11.30;99.90;;;;;;5061034;28;20452;-83
2023/12/17 12:09:39;;;;;;;2.17;2.13;;;11.40;99.90;;;;;;5059658;28;20447;-75
2023/12/17 12:12:17;;;;;;;2.97;2.60;;;11.50;99.90;;;;;;5052451;28;20540;-74
2023/12/17 12:14:49;;;;;;;3.37;3.27;;;11.60;99.90;;;;;;5054859;28;20456;-75
2023/12/17 12:17:39;;;;;;;2.40;2.20;;;11.60;99.90;;;;;;5054331;28;20459;-76
2023/12/17 12:20:10;;;;;;;2.60;2.50;;;11.50;99.90;;;;;;5044653;28;20455;-74
2023/12/17 12:22:41;;;;;;;2.80;2.40;;;11.60;99.90;;;;;;5051284;28;20472;-74
2023/12/17 12:25:13;;;;;;;2.80;2.70;;;11.60;99.90;;;;;;5051007;28;20464;-75
2023/12/17 12:27:44;;;;;;;2.70;2.50;;;11.70;99.90;;;;;;5053937;28;20901;-76
2023/12/17 12:30:25;;;;;;;2.90;2.80;;;11.60;99.90;;;;;;5048725;28;20459;-77
2023/12/17 12:32:55;;;;;;;3.00;2.80;;;11.70;99.90;;;;;;5052414;28;20602;-76
2023/12/17 12:35:29;;;;;;;2.60;2.50;;;11.70;99.90;;;;;;5040399;28;21082;-75
2023/12/17 12:37:58;;;;;;;2.97;2.87;;;11.70;99.90;;;;;;5049818;28;20989;-77
2023/12/17 12:40:32;;;;;;;3.10;3.00;;;11.70;99.90;;;;;;5052276;28;20871;-76
2023/12/17 12:43:04;;;;;;;2.70;2.60;;;11.80;99.90;;;;;;5048761;28;20480;-77
2023/12/17 12:45:32;;;;;;;2.70;2.60;;;11.90;99.90;;;;;;5051244;28;20444;-75
2023/12/17 12:48:02;;;;;;;2.80;2.70;;;11.80;99.90;;;;;;5047411;28;20560;-76
2023/12/17 12:50:31;;;;;;;3.20;3.00;;;11.90;99.90;;;;;;5049526;28;20499;-76
2023/12/17 12:52:59;;;;;;;3.40;3.20;;;11.90;99.90;;;;;;5053190;28;20556;-75
2023/12/17 12:55:42;;;;;;;3.23;3.03;;;11.80;99.90;;;;;;5051821;28;20863;-77
2023/12/17 12:58:11;;;;;;;2.67;2.57;;;11.90;99.90;;;;;;5049284;28;20550;-76
2023/12/17 13:00:40;;;;;;;2.90;2.80;;;11.90;99.90;;;;;;5051280;28;20448;-76
2023/12/17 13:03:10;;;;;;;2.63;2.53;;;11.90;99.90;;;;;;5049618;28;20910;-78